Time;durP1;ratioP1;P1;durP2;ratioP2;P2;SDS_P1;SDS_P2;PMS_P1;PMS_P2;Temp;Humidity;BMP_temperature;BMP_pressure;BME280_temperature;BME280_humidity;BME280_pressure;Samples;Min_cycle;Max_cycle;Signal;HPM_P1;HPM_P2
2022/10/03 00:01:22;;;;;;;15.83;14.73;;;10.00;99.90;;;;;;5063109;28;20224;-77
2022/10/03 00:04:05;;;;;;;15.03;13.97;;;9.90;99.90;;;;;;5033294;28;20196;-77
2022/10/03 00:06:43;;;;;;;14.80;13.80;;;9.90;99.90;;;;;;5033628;28;20199;-77
2022/10/03 00:09:25;;;;;;;15.17;14.07;;;9.80;99.90;;;;;;5036183;28;20274;-77
2022/10/03 00:12:09;;;;;;;16.07;14.90;;;9.80;99.90;;;;;;5035581;28;20203;-77
2022/10/03 00:14:46;;;;;;;17.57;16.37;;;9.70;99.90;;;;;;5036892;28;20196;-77
2022/10/03 00:17:18;;;;;;;18.10;16.83;;;9.70;99.90;;;;;;5035606;28;20199;-77
2022/10/03 00:19:54;;;;;;;18.00;16.90;;;9.70;99.90;;;;;;5036401;28;20218;-77
2022/10/03 00:22:34;;;;;;;18.23;16.90;;;9.60;99.90;;;;;;5035993;28;20253;-77
2022/10/03 00:25:24;;;;;;;19.37;17.87;;;9.60;99.90;;;;;;5037456;28;20203;-77
2022/10/03 00:28:03;;;;;;;19.07;17.67;;;9.60;99.90;;;;;;5032617;28;20191;-77
2022/10/03 00:30:55;;;;;;;18.87;17.37;;;9.70;99.90;;;;;;5034762;28;20219;-77
2022/10/03 00:33:35;;;;;;;19.00;17.70;;;9.60;99.90;;;;;;5036046;28;20214;-77
2022/10/03 00:36:08;;;;;;;19.57;18.07;;;9.70;99.90;;;;;;5033202;28;20199;-77
2022/10/03 00:39:02;;;;;;;18.77;17.37;;;9.70;99.90;;;;;;5035456;28;20652;-77
2022/10/03 00:42:23;;;;;;;19.00;17.67;;;9.70;99.90;;;;;;5028907;28;20261;-77
2022/10/03 00:45:17;;;;;;;14.70;13.50;;;9.60;99.90;;;;;;5030833;28;20211;-77
2022/10/03 00:48:04;;;;;;;13.10;12.00;;;9.60;99.90;;;;;;5028724;28;20211;-77
2022/10/03 00:50:49;;;;;;;13.90;12.60;;;9.50;99.90;;;;;;5061990;28;20226;-77
2022/10/03 00:53:41;;;;;;;13.97;12.87;;;9.50;99.90;;;;;;5036931;28;20199;-77
2022/10/03 00:56:42;;;;;;;14.70;13.40;;;9.50;99.90;;;;;;5036642;28;20203;-77
2022/10/03 00:59:26;;;;;;;14.67;13.37;;;9.50;99.90;;;;;;5015124;28;20203;-77
2022/10/03 01:01:54;;;;;;;15.27;13.87;;;9.60;99.90;;;;;;5036152;28;20207;-76
2022/10/03 01:04:39;;;;;;;16.07;14.43;;;9.60;99.90;;;;;;5035166;28;20203;-77
2022/10/03 01:07:23;;;;;;;16.40;14.80;;;9.70;99.90;;;;;;5035810;28;20230;-77
2022/10/03 01:10:08;;;;;;;15.63;14.13;;;9.80;99.90;;;;;;5035731;28;20231;-77
2022/10/03 01:13:08;;;;;;;13.60;12.40;;;9.90;99.90;;;;;;5028886;28;20245;-77
2022/10/03 01:15:47;;;;;;;16.13;14.50;;;9.90;99.90;;;;;;5027763;28;20204;-77
2022/10/03 01:18:24;;;;;;;14.50;13.20;;;10.00;99.90;;;;;;5035470;28;20576;-77
2022/10/03 01:21:00;;;;;;;15.20;13.80;;;10.20;99.90;;;;;;5035275;28;20230;-77
2022/10/03 01:24:24;;;;;;;13.03;11.93;;;10.20;99.90;;;;;;5035507;28;20188;-77
2022/10/03 01:27:00;;;;;;;19.20;17.70;;;10.30;99.90;;;;;;4974227;28;20612;-77
2022/10/03 01:32:28;;;;;;;16.80;15.27;;;10.40;99.90;;;;;;5035220;28;20188;-77
2022/10/03 01:35:05;;;;;;;16.07;14.70;;;10.40;99.90;;;;;;5067263;28;20668;-77
2022/10/03 01:37:40;;;;;;;16.13;14.87;;;10.50;99.90;;;;;;5026867;28;20207;-77
2022/10/03 01:40:13;;;;;;;16.47;15.07;;;10.50;99.90;;;;;;5034221;28;20232;-77
2022/10/03 01:42:53;;;;;;;17.17;15.77;;;10.50;99.90;;;;;;5035011;28;20188;-77
2022/10/03 01:45:29;;;;;;;17.23;15.67;;;10.50;99.90;;;;;;5033436;28;20208;-77
2022/10/03 01:48:02;;;;;;;13.50;12.10;;;10.60;99.90;;;;;;5035449;28;20203;-77
2022/10/03 01:50:35;;;;;;;11.97;10.50;;;10.50;99.90;;;;;;5025117;28;20235;-77
2022/10/03 01:53:08;;;;;;;12.00;10.80;;;10.60;99.90;;;;;;5033145;28;20661;-77
2022/10/03 01:55:44;;;;;;;10.73;9.73;;;10.50;99.90;;;;;;5027655;28;20208;-77
2022/10/03 01:58:19;;;;;;;13.00;11.70;;;10.50;99.90;;;;;;5033661;28;20211;-77
2022/10/03 02:00:55;;;;;;;16.30;15.00;;;10.50;99.90;;;;;;5034764;28;20235;-77
2022/10/03 02:03:27;;;;;;;13.30;12.20;;;10.50;99.90;;;;;;5066462;28;20211;-77
2022/10/03 02:06:00;;;;;;;13.90;12.70;;;10.60;99.90;;;;;;5034682;28;20188;-77
2022/10/03 02:08:40;;;;;;;13.40;12.30;;;10.50;99.90;;;;;;5037862;28;20203;-77
2022/10/03 02:11:10;;;;;;;11.97;10.93;;;10.50;99.90;;;;;;5037742;28;20223;-77
2022/10/03 02:13:47;;;;;;;10.60;9.80;;;10.50;99.90;;;;;;5038917;28;20269;-77
2022/10/03 02:16:28;;;;;;;10.37;9.47;;;10.50;99.90;;;;;;5037337;28;20204;-77
2022/10/03 02:19:03;;;;;;;9.80;9.00;;;10.40;99.90;;;;;;5038509;28;20200;-77
2022/10/03 02:21:31;;;;;;;9.90;9.00;;;10.40;99.90;;;;;;5031888;28;20211;-77
2022/10/03 02:24:27;;;;;;;9.77;8.90;;;10.30;99.90;;;;;;5039169;28;20242;-77
2022/10/03 02:27:25;;;;;;;9.37;8.57;;;10.40;99.90;;;;;;5033589;28;20258;-77
2022/10/03 02:30:19;;;;;;;9.23;8.53;;;10.40;99.90;;;;;;5033509;28;20247;-77
2022/10/03 02:33:21;;;;;;;10.00;9.20;;;10.50;99.90;;;;;;5030788;28;20574;-77
2022/10/03 02:36:11;;;;;;;10.53;9.73;;;10.50;99.90;;;;;;5032429;28;20230;-77
2022/10/03 02:39:15;;;;;;;11.77;10.87;;;10.50;99.90;;;;;;5030374;28;20220;-77
2022/10/03 02:42:33;;;;;;;12.23;11.33;;;10.40;99.90;;;;;;5030558;28;20203;-77
2022/10/03 02:45:35;;;;;;;13.67;12.47;;;10.40;99.90;;;;;;5036005;28;20208;-81
2022/10/03 02:48:37;;;;;;;11.80;10.90;;;10.40;99.90;;;;;;4996821;28;20234;-77
2022/10/03 02:51:28;;;;;;;11.97;10.83;;;10.50;99.90;;;;;;5035549;28;20203;-77
2022/10/03 02:54:43;;;;;;;12.83;11.77;;;10.50;99.90;;;;;;5034613;28;20214;-77
2022/10/03 02:57:45;;;;;;;13.90;12.70;;;10.50;99.90;;;;;;5018579;28;20630;-79
2022/10/03 03:00:17;;;;;;;13.07;12.03;;;10.50;99.90;;;;;;5031600;28;20216;-78
2022/10/03 03:03:16;;;;;;;12.13;11.13;;;10.50;99.90;;;;;;5037687;28;20207;-77
2022/10/03 03:06:18;;;;;;;13.10;12.07;;;10.50;99.90;;;;;;5027194;28;20199;-77
2022/10/03 03:09:28;;;;;;;14.40;13.20;;;10.60;99.90;;;;;;5038096;28;20298;-77
2022/10/03 03:12:29;;;;;;;14.00;12.80;;;10.60;99.90;;;;;;5040893;28;20203;-77
2022/10/03 03:15:32;;;;;;;11.57;10.57;;;10.70;99.90;;;;;;5005161;28;20213;-77
2022/10/03 03:18:06;;;;;;;11.77;10.77;;;10.70;99.90;;;;;;5033533;28;20207;-79
2022/10/03 03:20:44;;;;;;;9.57;8.67;;;10.70;99.90;;;;;;5027384;28;20591;-81
2022/10/03 03:23:40;;;;;;;9.47;8.57;;;10.70;99.90;;;;;;5034857;28;20192;-81
2022/10/03 03:26:29;;;;;;;9.80;8.90;;;10.70;99.90;;;;;;5033470;28;20230;-79
2022/10/03 03:29:04;;;;;;;10.37;9.47;;;10.60;99.90;;;;;;5032559;28;20214;-80
2022/10/03 03:31:37;;;;;;;8.80;8.00;;;10.60;99.90;;;;;;5024756;28;20642;-80
2022/10/03 03:34:13;;;;;;;8.87;8.07;;;10.60;99.90;;;;;;5033999;28;20218;-80
2022/10/03 03:36:50;;;;;;;9.80;9.00;;;10.60;99.90;;;;;;5033966;28;20664;-80
2022/10/03 03:39:42;;;;;;;9.93;9.07;;;10.60;99.90;;;;;;5032153;28;20198;-79
2022/10/03 03:42:23;;;;;;;10.73;9.73;;;10.60;99.90;;;;;;5041550;22;20235;-84
2022/10/03 03:45:08;;;;;;;10.37;9.37;;;10.60;99.90;;;;;;5022291;28;20213;-78
2022/10/03 03:48:11;;;;;;;10.33;9.43;;;10.50;99.90;;;;;;5020081;28;20198;-84
2022/10/03 03:50:51;;;;;;;9.23;8.33;;;10.50;99.90;;;;;;5030487;28;20767;-82
2022/10/03 03:54:01;;;;;;;8.77;7.87;;;10.40;99.90;;;;;;5040825;28;20242;-81
2022/10/03 03:56:42;;;;;;;10.23;9.23;;;10.40;99.90;;;;;;5035222;28;20294;-82
2022/10/03 03:59:23;;;;;;;10.03;9.13;;;10.40;99.90;;;;;;5043764;28;20210;-82
2022/10/03 04:02:05;;;;;;;11.33;10.33;;;10.30;99.90;;;;;;5042768;28;20238;-82
2022/10/03 04:04:56;;;;;;;12.27;11.10;;;10.30;99.90;;;;;;5030545;28;20195;-81
2022/10/03 04:07:39;;;;;;;13.43;12.07;;;10.20;99.90;;;;;;5043266;28;20612;-82
2022/10/03 04:10:27;;;;;;;13.07;11.70;;;10.20;99.90;;;;;;5044929;28;20233;-81
2022/10/03 04:13:24;;;;;;;13.07;11.93;;;10.20;99.90;;;;;;5043777;28;20207;-82
2022/10/03 04:16:10;;;;;;;12.73;11.57;;;10.10;99.90;;;;;;5025868;28;20211;-82
2022/10/03 04:18:58;;;;;;;11.70;10.70;;;10.10;99.90;;;;;;5033868;28;20199;-81
2022/10/03 04:21:51;;;;;;;12.03;11.03;;;10.00;99.90;;;;;;5036653;28;20207;-82
2022/10/03 04:24:44;;;;;;;11.67;10.63;;;9.90;99.90;;;;;;5037467;28;20200;-82
2022/10/03 04:27:32;;;;;;;11.43;10.53;;;9.90;99.90;;;;;;5044210;28;20203;-82
2022/10/03 04:30:09;;;;;;;13.83;12.43;;;9.80;99.90;;;;;;5042717;28;20222;-81
2022/10/03 04:32:56;;;;;;;14.03;12.73;;;9.80;99.90;;;;;;5027704;28;20195;-81
2022/10/03 04:35:43;;;;;;;13.60;12.33;;;9.70;99.90;;;;;;5038476;28;20226;-81
2022/10/03 04:38:20;;;;;;;12.50;11.40;;;9.70;99.90;;;;;;5035873;28;20210;-81
2022/10/03 04:40:57;;;;;;;13.60;12.40;;;9.70;99.90;;;;;;5043016;28;20765;-81
2022/10/03 04:43:35;;;;;;;15.27;14.07;;;9.70;99.90;;;;;;5033342;28;20199;-82
2022/10/03 04:46:18;;;;;;;16.20;14.90;;;9.70;99.90;;;;;;5037653;28;20203;-81
2022/10/03 04:48:51;;;;;;;18.03;12.70;;;9.70;99.90;;;;;;5038767;28;20204;-82
2022/10/03 04:51:25;;;;;;;11.67;10.67;;;9.80;99.90;;;;;;5039667;28;20219;-81
2022/10/03 04:53:59;;;;;;;18.07;16.77;;;9.80;99.90;;;;;;5039242;28;20290;-82
2022/10/03 04:56:44;;;;;;;15.50;14.40;;;9.80;99.90;;;;;;5042817;28;20201;-81
2022/10/03 04:59:34;;;;;;;13.20;12.30;;;9.90;99.90;;;;;;5039409;28;20192;-82
2022/10/03 05:02:08;;;;;;;15.23;13.80;;;9.90;99.90;;;;;;5035911;28;20291;-82
2022/10/03 05:04:44;;;;;;;18.40;12.70;;;9.90;99.90;;;;;;5039573;28;20206;-81
2022/10/03 05:07:17;;;;;;;13.73;12.53;;;9.90;99.90;;;;;;5043884;28;20202;-81
2022/10/03 05:09:52;;;;;;;11.63;10.53;;;9.90;99.90;;;;;;5038687;28;20214;-82
2022/10/03 05:12:31;;;;;;;14.43;12.67;;;9.90;99.90;;;;;;5048218;28;20211;-82
2022/10/03 05:15:13;;;;;;;12.97;11.87;;;9.90;99.90;;;;;;5040154;28;20203;-82
2022/10/03 05:17:48;;;;;;;13.97;12.77;;;10.00;99.90;;;;;;5033906;28;20199;-81
2022/10/03 05:20:34;;;;;;;13.30;12.20;;;10.10;99.90;;;;;;5041656;28;20195;-81
2022/10/03 05:23:14;;;;;;;13.30;12.10;;;10.00;99.90;;;;;;5049871;28;20199;-81
2022/10/03 05:25:54;;;;;;;12.10;10.97;;;10.00;99.90;;;;;;5044609;28;20688;-81
2022/10/03 05:28:32;;;;;;;14.40;13.10;;;10.10;99.90;;;;;;5052477;28;20664;-81
2022/10/03 05:31:04;;;;;;;15.23;13.83;;;10.10;99.90;;;;;;5052522;28;20225;-83
2022/10/03 05:33:43;;;;;;;13.97;12.60;;;10.10;99.90;;;;;;5054756;28;20199;-81
2022/10/03 05:36:18;;;;;;;14.37;13.07;;;10.10;99.90;;;;;;5051809;28;20199;-81
2022/10/03 05:39:33;;;;;;;14.80;13.50;;;10.10;99.90;;;;;;5051313;28;20182;-80
2022/10/03 05:42:23;;;;;;;15.77;14.40;;;10.10;99.90;;;;;;5054377;28;20579;-81
2022/10/03 05:45:01;;;;;;;15.77;14.37;;;10.10;99.90;;;;;;5042279;28;20207;-81
2022/10/03 05:47:48;;;;;;;14.57;13.27;;;10.20;99.90;;;;;;5034321;28;20192;-80
2022/10/03 05:50:56;;;;;;;15.77;14.37;;;10.20;99.90;;;;;;5045461;28;20656;-81
2022/10/03 05:54:00;;;;;;;14.73;13.33;;;10.20;99.90;;;;;;5045076;28;20263;-81
2022/10/03 05:56:43;;;;;;;11.90;10.70;;;10.20;99.90;;;;;;5028271;28;20201;-81
2022/10/03 05:59:36;;;;;;;11.40;10.30;;;10.40;99.90;;;;;;5042490;28;20203;-80
2022/10/03 06:02:35;;;;;;;13.07;11.77;;;10.50;99.90;;;;;;5042565;28;20220;-81
2022/10/03 06:05:29;;;;;;;11.73;10.33;;;10.50;99.90;;;;;;5042343;28;20192;-81
2022/10/03 06:08:32;;;;;;;11.53;10.13;;;10.50;99.90;;;;;;5043345;28;20203;-81
2022/10/03 06:11:14;;;;;;;12.20;10.90;;;10.50;99.90;;;;;;5022196;28;20231;-79
2022/10/03 06:14:14;;;;;;;10.87;9.40;;;10.50;99.90;;;;;;5045777;28;20196;-82
2022/10/03 06:16:52;;;;;;;12.73;10.67;;;10.50;99.90;;;;;;5044447;28;20191;-81
2022/10/03 06:19:34;;;;;;;12.37;11.10;;;10.50;99.90;;;;;;5035920;28;20687;-81
2022/10/03 06:22:47;;;;;;;12.60;11.23;;;10.60;99.90;;;;;;5035387;28;20243;-81
2022/10/03 06:25:57;;;;;;;13.07;11.67;;;10.60;99.90;;;;;;5048485;28;20222;-81
2022/10/03 06:29:01;;;;;;;12.13;10.93;;;10.60;99.90;;;;;;5004960;28;20192;-83
2022/10/03 06:32:06;;;;;;;12.27;11.03;;;10.60;99.90;;;;;;5036045;28;20219;-81
2022/10/03 06:35:04;;;;;;;13.57;12.17;;;10.60;99.90;;;;;;5034536;28;20207;-81
2022/10/03 06:37:56;;;;;;;10.90;9.90;;;10.70;99.90;;;;;;5053028;28;20627;-82
2022/10/03 06:41:05;;;;;;;12.23;11.03;;;10.80;99.90;;;;;;5044831;28;20203;-81
2022/10/03 06:44:06;;;;;;;11.50;10.40;;;10.80;99.90;;;;;;5038235;28;20693;-81
2022/10/03 06:47:14;;;;;;;13.03;9.97;;;10.90;99.90;;;;;;5031431;28;20200;-85
2022/10/03 06:50:17;;;;;;;12.77;9.93;;;11.00;99.90;;;;;;5037468;28;20222;-79
2022/10/03 06:53:08;;;;;;;13.43;10.67;;;11.00;99.90;;;;;;5009381;28;20692;-81
2022/10/03 06:56:04;;;;;;;13.03;10.70;;;11.00;99.90;;;;;;5039366;28;20204;-81
2022/10/03 06:59:00;;;;;;;11.70;10.50;;;11.10;99.90;;;;;;5034440;28;20203;-81
2022/10/03 07:01:58;;;;;;;11.03;9.87;;;11.20;99.90;;;;;;5045281;28;20226;-80
2022/10/03 07:04:56;;;;;;;13.43;11.93;;;11.30;99.90;;;;;;5019859;28;20210;-81
2022/10/03 07:08:04;;;;;;;11.13;10.00;;;11.30;99.90;;;;;;5042157;28;20577;-81
2022/10/03 07:10:51;;;;;;;12.40;11.10;;;11.40;99.90;;;;;;5034384;28;20330;-82
2022/10/03 07:13:55;;;;;;;13.83;12.47;;;11.50;99.90;;;;;;5037245;28;20197;-82
2022/10/03 07:16:48;;;;;;;10.93;9.67;;;11.70;99.90;;;;;;5024892;28;20642;-81
2022/10/03 07:19:53;;;;;;;16.20;14.77;;;11.80;99.90;;;;;;5041848;28;20255;-79
2022/10/03 07:22:57;;;;;;;12.13;9.53;;;11.90;99.90;;;;;;4964922;28;20228;-79
2022/10/03 07:26:06;;;;;;;12.17;9.70;;;11.80;99.90;;;;;;5017545;28;20213;-79
2022/10/03 07:29:12;;;;;;;13.20;9.70;;;11.80;99.90;;;;;;5047534;28;20209;-80
2022/10/03 07:31:58;;;;;;;12.90;9.63;;;11.90;99.90;;;;;;5034721;28;20701;-79
2022/10/03 07:35:08;;;;;;;12.30;10.37;;;11.90;99.90;;;;;;5045983;28;20194;-79
2022/10/03 07:41:20;;;;;;;10.53;9.43;;;12.00;99.90;;;;;;5009500;28;20236;-81
2022/10/03 07:44:28;;;;;;;9.63;8.63;;;12.10;99.90;;;;;;5006164;28;20293;-80
2022/10/03 07:47:30;;;;;;;11.30;9.33;;;12.10;99.90;;;;;;4995185;28;20221;-80
2022/10/03 07:50:26;;;;;;;10.73;9.27;;;12.10;99.90;;;;;;4995225;28;22462;-79
2022/10/03 07:53:15;;;;;;;10.70;8.97;;;12.20;99.90;;;;;;5031587;28;20238;-79
2022/10/03 07:56:01;;;;;;;11.20;10.00;;;12.40;99.90;;;;;;5029946;28;20205;-79
2022/10/03 07:58:59;;;;;;;10.57;9.27;;;12.70;99.90;;;;;;5033609;28;20201;-79
2022/10/03 08:01:47;;;;;;;10.67;9.17;;;12.80;99.90;;;;;;5030796;28;20214;-79
2022/10/03 08:04:43;;;;;;;19.00;17.40;;;12.80;99.90;;;;;;5033029;28;20195;-79
2022/10/03 08:07:37;;;;;;;18.87;17.27;;;12.80;99.90;;;;;;5031238;28;20676;-83
2022/10/03 08:10:23;;;;;;;20.17;18.20;;;12.80;99.90;;;;;;5032141;28;20194;-80
2022/10/03 08:13:10;;;;;;;19.77;18.07;;;12.80;99.90;;;;;;5018190;28;20238;-78
2022/10/03 08:15:55;;;;;;;19.80;18.00;;;12.70;99.90;;;;;;5030372;28;20214;-79
2022/10/03 08:18:36;;;;;;;11.63;9.60;;;12.70;99.90;;;;;;5029515;28;20677;-80
2022/10/03 08:21:05;;;;;;;18.83;17.30;;;12.70;99.90;;;;;;5023067;28;20224;-77
2022/10/03 08:24:06;;;;;;;15.30;14.07;;;12.80;99.90;;;;;;5031812;28;20192;-77
2022/10/03 08:26:55;;;;;;;18.17;16.67;;;12.80;99.90;;;;;;5036177;28;20250;-78
2022/10/03 08:29:45;;;;;;;18.77;17.17;;;12.90;99.90;;;;;;5029840;28;20196;-78
2022/10/03 08:32:38;;;;;;;18.30;16.73;;;13.00;99.90;;;;;;5029789;28;20319;-77
2022/10/03 08:35:37;;;;;;;16.70;15.50;;;13.20;99.90;;;;;;5041825;28;20199;-77
2022/10/03 08:38:32;;;;;;;12.23;9.40;;;13.30;99.90;;;;;;5044250;28;20210;-78
2022/10/03 08:41:32;;;;;;;18.60;17.00;;;13.40;99.90;;;;;;4997656;28;20775;-82
2022/10/03 08:44:46;;;;;;;13.17;10.83;;;13.40;99.90;;;;;;5022211;28;20220;-79
2022/10/03 08:47:43;;;;;;;11.90;9.37;;;13.40;99.90;;;;;;4933474;28;20647;-82
2022/10/03 08:50:39;;;;;;;8.33;7.53;;;13.50;99.90;;;;;;4949513;28;20214;-81
2022/10/03 08:53:47;;;;;;;11.70;10.50;;;13.70;99.90;;;;;;5027282;28;20302;-80
2022/10/03 08:56:18;;;;;;;14.60;13.30;;;13.80;99.90;;;;;;5026233;28;20199;-81
2022/10/03 08:59:11;;;;;;;15.93;14.30;;;14.10;99.90;;;;;;5022139;28;20197;-80
2022/10/03 09:02:00;;;;;;;13.20;11.07;;;14.80;99.90;;;;;;5001185;28;20220;-80
2022/10/03 09:05:03;;;;;;;11.33;8.33;;;15.20;99.90;;;;;;5028770;28;20198;-83
2022/10/03 09:07:54;;;;;;;16.87;15.47;;;15.10;99.90;;;;;;5036519;28;20214;-81
2022/10/03 09:10:47;;;;;;;10.57;8.00;;;15.20;99.90;;;;;;5036612;28;20206;-81
2022/10/03 09:14:03;;;;;;;14.67;13.30;;;14.90;99.90;;;;;;5033503;28;20202;-81
2022/10/03 09:16:58;;;;;;;8.27;7.50;;;14.50;99.90;;;;;;5036468;28;20230;-80
2022/10/03 09:19:48;;;;;;;11.63;8.10;;;14.60;99.90;;;;;;5041002;28;20282;-81
2022/10/03 09:22:52;;;;;;;7.57;6.53;;;14.70;99.90;;;;;;5036114;28;20228;-82
2022/10/03 09:25:39;;;;;;;12.60;11.40;;;14.60;99.90;;;;;;5021591;28;20237;-81
2022/10/03 09:28:34;;;;;;;15.13;13.87;;;14.60;99.90;;;;;;5015772;28;20321;-81
2022/10/03 09:31:20;;;;;;;14.37;13.17;;;14.80;99.90;;;;;;4997085;28;20226;-82
2022/10/03 09:34:26;;;;;;;15.67;14.27;;;15.00;99.90;;;;;;5021773;28;20405;-81
2022/10/03 09:37:22;;;;;;;6.80;6.10;;;15.20;99.90;;;;;;5050694;28;20694;-81
2022/10/03 09:40:27;;;;;;;9.73;6.90;;;15.20;99.90;;;;;;5035535;28;20219;-80
2022/10/03 09:43:17;;;;;;;15.43;14.10;;;15.10;99.90;;;;;;5022212;28;20662;-81
2022/10/03 09:46:20;;;;;;;10.93;6.87;;;15.00;99.90;;;;;;5030241;28;20210;-81
2022/10/03 09:49:44;;;;;;;;;;;;;;;;;;;;;
2022/10/03 09:55:52;;;;;;;12.20;11.07;;;14.90;99.90;;;;;;5011086;22;20212;-81
2022/10/03 09:58:39;;;;;;;13.20;12.10;;;14.90;99.90;;;;;;5050761;28;20209;-81
2022/10/03 10:01:29;;;;;;;14.30;13.10;;;14.90;99.90;;;;;;5055145;28;20286;-81
2022/10/03 10:04:38;;;;;;;14.00;12.73;;;15.10;99.90;;;;;;5050581;28;20205;-80
2022/10/03 10:07:41;;;;;;;14.60;13.40;;;15.20;99.90;;;;;;5049963;28;20341;-80
2022/10/03 10:10:48;;;;;;;8.17;6.40;;;15.40;99.90;;;;;;5061428;28;20607;-81
2022/10/03 10:13:36;;;;;;;12.03;11.10;;;15.40;99.90;;;;;;5041006;28;20580;-81
2022/10/03 10:16:25;;;;;;;15.47;14.27;;;15.50;99.90;;;;;;5042050;28;20241;-82
2022/10/03 10:19:16;;;;;;;16.63;15.43;;;15.80;99.90;;;;;;5043832;28;20621;-81
2022/10/03 10:22:08;;;;;;;15.67;14.57;;;15.70;99.90;;;;;;5050012;28;20199;-81
2022/10/03 10:25:13;;;;;;;10.10;8.67;;;16.00;99.90;;;;;;5041638;28;20588;-82
2022/10/03 10:28:15;;;;;;;11.33;10.33;;;16.00;99.90;;;;;;5062846;28;20205;-78
2022/10/03 10:31:06;;;;;;;12.50;9.90;;;16.00;99.90;;;;;;5064203;28;20187;-79
2022/10/03 10:34:06;;;;;;;11.30;10.20;;;16.10;99.90;;;;;;5064439;28;20180;-79
2022/10/03 10:37:19;;;;;;;11.20;10.00;;;16.10;99.90;;;;;;5025324;28;20214;-80
2022/10/03 10:40:16;;;;;;;14.03;12.60;;;16.30;99.90;;;;;;5060794;28;20335;-81
2022/10/03 10:43:33;;;;;;;14.03;12.80;;;16.30;99.90;;;;;;5058213;28;20668;-78
2022/10/03 10:46:30;;;;;;;14.00;12.90;;;16.20;99.90;;;;;;5024489;28;20227;-77
2022/10/03 10:49:44;;;;;;;14.10;12.80;;;16.30;99.90;;;;;;5040999;28;20204;-79
2022/10/03 10:52:46;;;;;;;13.87;12.40;;;16.40;99.90;;;;;;5069553;28;20218;-77
2022/10/03 10:55:59;;;;;;;11.07;9.67;;;16.30;99.90;;;;;;5069427;28;20282;-77
2022/10/03 10:59:21;;;;;;;8.47;6.10;;;16.10;99.90;;;;;;5072503;28;20189;-77
2022/10/03 11:02:27;;;;;;;8.20;6.10;;;16.10;99.90;;;;;;5057442;28;20684;-78
2022/10/03 11:05:35;;;;;;;7.20;5.63;;;16.00;99.90;;;;;;5055826;28;20210;-80
2022/10/03 11:08:36;;;;;;;5.83;5.23;;;16.10;99.90;;;;;;5066416;28;20214;-77
2022/10/03 11:11:27;;;;;;;9.40;5.57;;;16.10;99.90;;;;;;5060478;28;20195;-78
2022/10/03 11:14:44;;;;;;;12.83;11.47;;;15.80;99.90;;;;;;5057355;28;20202;-77
2022/10/03 11:17:49;;;;;;;11.80;10.90;;;15.70;99.90;;;;;;5020479;28;20223;-79
2022/10/03 11:20:56;;;;;;;12.83;11.63;;;16.00;99.90;;;;;;5038888;28;20301;-78
2022/10/03 11:24:07;;;;;;;12.10;10.97;;;15.90;99.90;;;;;;5016302;28;20210;-78
2022/10/03 11:27:08;;;;;;;11.93;10.93;;;16.10;99.90;;;;;;5019312;28;20242;-78
2022/10/03 11:30:07;;;;;;;11.23;10.43;;;16.10;99.90;;;;;;5063879;28;20206;-78
2022/10/03 11:33:18;;;;;;;11.67;10.77;;;16.20;99.90;;;;;;5072430;28;20564;-76
2022/10/03 11:36:10;;;;;;;12.57;11.67;;;16.30;99.90;;;;;;5065408;28;20239;-76
2022/10/03 11:38:42;;;;;;;11.33;10.53;;;16.30;99.90;;;;;;5075061;28;20191;-76
2022/10/03 11:41:21;;;;;;;13.27;12.27;;;16.20;99.90;;;;;;5070557;28;20390;-76
2022/10/03 11:44:16;;;;;;;11.33;10.40;;;16.00;99.90;;;;;;5065133;28;20205;-76
2022/10/03 11:47:27;;;;;;;11.53;10.63;;;16.20;99.90;;;;;;5064465;28;20255;-76
2022/10/03 11:50:28;;;;;;;10.13;9.33;;;16.40;99.90;;;;;;5027685;28;20209;-77
2022/10/03 11:53:30;;;;;;;9.33;8.63;;;16.40;99.90;;;;;;5067977;28;20224;-76
2022/10/03 11:56:15;;;;;;;9.60;8.90;;;16.60;99.90;;;;;;5050653;28;20230;-76
2022/10/03 11:58:54;;;;;;;9.57;8.70;;;16.70;99.90;;;;;;5068081;28;20210;-77
2022/10/03 12:01:35;;;;;;;9.87;9.17;;;16.90;99.90;;;;;;5080107;28;20206;-78
2022/10/03 12:04:11;;;;;;;10.37;9.60;;;17.10;99.90;;;;;;5058864;28;20225;-77
2022/10/03 12:09:55;;;;;;;10.13;9.33;;;17.40;99.90;;;;;;5063523;28;20273;-78
2022/10/03 12:12:34;;;;;;;10.37;9.50;;;17.50;99.90;;;;;;5071223;28;20213;-78
2022/10/03 12:15:12;;;;;;;9.93;9.23;;;17.60;99.90;;;;;;5076041;28;20659;-78
2022/10/03 12:17:46;;;;;;;11.10;10.30;;;17.50;99.90;;;;;;5060546;28;20214;-78
2022/10/03 12:20:21;;;;;;;10.47;9.77;;;17.50;99.90;;;;;;5063449;28;20300;-77
2022/10/03 12:22:55;;;;;;;4.30;4.00;;;17.50;99.90;;;;;;5086609;28;20264;-77
2022/10/03 12:25:24;;;;;;;5.03;3.63;;;17.60;99.90;;;;;;5077592;28;20200;-77
2022/10/03 12:28:13;;;;;;;4.73;4.17;;;17.60;99.90;;;;;;5050381;28;20201;-78
2022/10/03 12:30:47;;;;;;;6.97;6.23;;;17.60;99.90;;;;;;5057088;28;20199;-79
2022/10/03 12:33:40;;;;;;;4.47;3.80;;;17.50;99.90;;;;;;5071510;28;20210;-78
2022/10/03 12:36:12;;;;;;;5.40;4.07;;;17.50;99.90;;;;;;5047607;28;20718;-78
2022/10/03 12:38:53;;;;;;;7.23;4.67;;;17.20;99.90;;;;;;5071542;28;20202;-78
2022/10/03 12:41:32;;;;;;;8.83;4.40;;;17.00;99.90;;;;;;5062453;28;20687;-78
2022/10/03 12:44:19;;;;;;;6.43;4.80;;;16.90;99.90;;;;;;5056675;28;20266;-78
2022/10/03 12:46:51;;;;;;;7.77;4.47;;;16.60;99.90;;;;;;5073393;28;20697;-80
2022/10/03 12:49:25;;;;;;;6.60;4.40;;;16.60;99.90;;;;;;5076788;28;20217;-79
2022/10/03 12:51:56;;;;;;;5.40;4.13;;;16.40;99.90;;;;;;5060616;28;20624;-78
2022/10/03 12:54:38;;;;;;;7.43;4.23;;;16.30;99.90;;;;;;5046717;28;20267;-78
2022/10/03 12:57:32;;;;;;;8.17;5.40;;;16.30;99.90;;;;;;5054239;28;20223;-78
2022/10/03 13:00:05;;;;;;;6.37;5.40;;;15.90;99.90;;;;;;5060694;28;20222;-78
2022/10/03 13:02:37;;;;;;;11.77;10.60;;;15.70;99.90;;;;;;5044468;28;20725;-78
2022/10/03 13:05:30;;;;;;;11.77;10.87;;;15.60;99.90;;;;;;5039602;28;20194;-79
2022/10/03 13:08:01;;;;;;;11.00;10.30;;;15.60;99.90;;;;;;5055951;28;20209;-78
2022/10/03 13:10:37;;;;;;;9.17;8.43;;;15.50;99.90;;;;;;5077330;28;20273;-79
2022/10/03 13:13:21;;;;;;;10.43;9.63;;;15.60;99.90;;;;;;5069811;28;20206;-78
2022/10/03 13:16:07;;;;;;;12.23;11.13;;;15.80;99.90;;;;;;5057070;28;20223;-77
2022/10/03 13:18:44;;;;;;;8.70;8.00;;;15.90;99.90;;;;;;5061244;28;20193;-78
2022/10/03 13:21:17;;;;;;;10.80;10.10;;;15.90;99.90;;;;;;5067214;28;20201;-78
2022/10/03 13:23:50;;;;;;;11.00;10.20;;;15.90;99.90;;;;;;5077567;28;20200;-78
2022/10/03 13:26:23;;;;;;;11.63;10.63;;;15.90;99.90;;;;;;5079464;28;20219;-78
2022/10/03 13:29:13;;;;;;;10.03;8.00;;;15.70;99.90;;;;;;5078380;28;20197;-77
2022/10/03 13:32:08;;;;;;;9.57;4.73;;;15.80;99.90;;;;;;5070986;28;20188;-79
2022/10/03 13:34:46;;;;;;;6.90;4.33;;;15.70;99.90;;;;;;5059607;28;20558;-75
2022/10/03 13:37:22;;;;;;;7.03;6.43;;;15.70;99.90;;;;;;5087693;28;20217;-74
2022/10/03 13:39:52;;;;;;;11.30;10.07;;;15.90;99.90;;;;;;5083595;28;20192;-74
2022/10/03 13:42:31;;;;;;;10.73;9.80;;;15.90;99.90;;;;;;5092077;28;20239;-74
2022/10/03 13:45:03;;;;;;;10.77;10.00;;;16.10;99.90;;;;;;5060880;28;20202;-77
2022/10/03 13:47:52;;;;;;;5.90;4.17;;;16.20;99.90;;;;;;5069450;28;20228;-75
2022/10/03 13:50:26;;;;;;;5.00;4.27;;;16.40;99.90;;;;;;5078691;28;20202;-76
2022/10/03 13:52:59;;;;;;;4.47;3.80;;;16.40;99.90;;;;;;5069598;28;20229;-77
2022/10/03 13:55:43;;;;;;;7.87;4.33;;;16.40;99.90;;;;;;5079408;28;20207;-77
2022/10/03 13:58:31;;;;;;;7.77;4.97;;;16.40;99.90;;;;;;5038742;28;20207;-76
2022/10/03 14:01:13;;;;;;;7.73;5.93;;;16.30;99.90;;;;;;5059295;28;20192;-76
2022/10/03 14:03:50;;;;;;;6.47;4.80;;;16.40;99.90;;;;;;5051026;28;20261;-77
2022/10/03 14:06:27;;;;;;;5.90;4.20;;;16.40;99.90;;;;;;5071282;28;20218;-77
2022/10/03 14:09:23;;;;;;;5.10;4.33;;;16.50;99.90;;;;;;5082108;28;20209;-77
2022/10/03 14:12:00;;;;;;;6.17;4.43;;;16.50;99.90;;;;;;5075900;28;20212;-77
2022/10/03 14:14:50;;;;;;;6.27;4.13;;;16.60;99.90;;;;;;5088115;28;20196;-77
2022/10/03 14:17:24;;;;;;;9.00;4.80;;;16.60;99.90;;;;;;5071103;28;20228;-78
2022/10/03 14:20:05;;;;;;;5.93;4.20;;;16.60;99.90;;;;;;5074626;28;20208;-76
2022/10/03 14:22:43;;;;;;;6.93;4.47;;;16.50;99.90;;;;;;5076106;28;20187;-77
2022/10/03 14:25:21;;;;;;;6.53;4.00;;;16.50;99.90;;;;;;5078419;28;20651;-77
2022/10/03 14:27:52;;;;;;;7.53;6.83;;;16.50;99.90;;;;;;5082002;28;20618;-76
2022/10/03 14:30:23;;;;;;;6.20;5.67;;;16.50;99.90;;;;;;5077986;28;20200;-77
2022/10/03 14:33:09;;;;;;;6.87;4.17;;;16.60;99.90;;;;;;5082308;28;20719;-74
2022/10/03 14:35:40;;;;;;;10.03;4.30;;;16.50;99.90;;;;;;5069661;28;20203;-74
2022/10/03 14:38:56;;;;;;;7.03;4.80;;;16.50;99.90;;;;;;5076892;28;20193;-74